sensor_id;sensor_type;location;lat;lon;timestamp;pressure;altitude;pressure_sealevel;temperature;humidity
54270;BME280;40181;51.560;13.000;2022-07-18T00:01:15;101617.66;;;16.61;52.64
54270;BME280;40181;51.560;13.000;2022-07-18T00:05:03;101616.81;;;16.73;53.09
54270;BME280;40181;51.560;13.000;2022-07-18T00:21:11;101631.56;;;16.23;51.18
54270;BME280;40181;51.560;13.000;2022-07-18T00:33:19;101628.69;;;15.93;52.30
54270;BME280;40181;51.560;13.000;2022-07-18T00:36:31;101640.13;;;15.90;51.99
54270;BME280;40181;51.560;13.000;2022-07-18T00:39:17;101633.81;;;15.79;52.26
54270;BME280;40181;51.560;13.000;2022-07-18T00:52:24;101637.53;;;15.94;52.59
54270;BME280;40181;51.560;13.000;2022-07-18T00:56:27;101634.84;;;15.92;52.21
54270;BME280;40181;51.560;13.000;2022-07-18T00:59:06;101636.47;;;15.79;52.30
54270;BME280;40181;51.560;13.000;2022-07-18T01:08:23;101635.53;;;15.74;53.09
54270;BME280;40181;51.560;13.000;2022-07-18T01:11:30;101649.53;;;15.62;53.26
54270;BME280;40181;51.560;13.000;2022-07-18T01:14:45;101653.94;;;15.58;53.64
54270;BME280;40181;51.560;13.000;2022-07-18T01:18:34;101654.00;;;15.63;53.86
54270;BME280;40181;51.560;13.000;2022-07-18T01:21:01;101659.28;;;15.65;53.98
54270;BME280;40181;51.560;13.000;2022-07-18T01:24:07;101658.38;;;15.59;53.91
54270;BME280;40181;51.560;13.000;2022-07-18T01:30:52;101665.16;;;15.32;54.26
54270;BME280;40181;51.560;13.000;2022-07-18T01:34:01;101661.72;;;15.43;54.68
54270;BME280;40181;51.560;13.000;2022-07-18T01:36:57;101656.44;;;15.46;54.43
54270;BME280;40181;51.560;13.000;2022-07-18T01:43:32;101650.94;;;15.26;54.95
54270;BME280;40181;51.560;13.000;2022-07-18T01:49:17;101663.13;;;15.11;55.43
54270;BME280;40181;51.560;13.000;2022-07-18T01:55:48;101668.16;;;14.91;56.98
54270;BME280;40181;51.560;13.000;2022-07-18T01:58:27;101666.34;;;14.88;57.32
54270;BME280;40181;51.560;13.000;2022-07-18T02:01:20;101658.38;;;14.85;57.21
54270;BME280;40181;51.560;13.000;2022-07-18T02:04:18;101657.44;;;14.82;57.86
54270;BME280;40181;51.560;13.000;2022-07-18T02:07:33;101666.38;;;14.90;57.99
54270;BME280;40181;51.560;13.000;2022-07-18T02:20:26;101661.94;;;14.87;58.82
54270;BME280;40181;51.560;13.000;2022-07-18T02:30:12;101664.47;;;14.81;58.35
54270;BME280;40181;51.560;13.000;2022-07-18T02:33:19;101658.28;;;14.79;58.30
54270;BME280;40181;51.560;13.000;2022-07-18T02:36:49;101660.88;;;14.73;58.31
54270;BME280;40181;51.560;13.000;2022-07-18T02:41:53;101654.56;;;14.64;58.05
54270;BME280;40181;51.560;13.000;2022-07-18T02:43:15;101651.81;;;14.58;58.66
54270;BME280;40181;51.560;13.000;2022-07-18T02:53:06;101646.91;;;14.24;60.30
54270;BME280;40181;51.560;13.000;2022-07-18T02:59:09;101639.25;;;14.45;60.79
54270;BME280;40181;51.560;13.000;2022-07-18T03:02:13;101648.16;;;14.50;61.23
54270;BME280;40181;51.560;13.000;2022-07-18T03:05:22;101641.06;;;14.46;62.22
54270;BME280;40181;51.560;13.000;2022-07-18T03:15:46;101645.00;;;14.16;65.76
54270;BME280;40181;51.560;13.000;2022-07-18T03:21:35;101641.66;;;14.28;65.78
54270;BME280;40181;51.560;13.000;2022-07-18T03:24:27;101641.66;;;14.28;65.67
54270;BME280;40181;51.560;13.000;2022-07-18T03:36:33;101649.34;;;14.12;65.54
54270;BME280;40181;51.560;13.000;2022-07-18T03:43:06;101660.47;;;13.92;64.78
54270;BME280;40181;51.560;13.000;2022-07-18T03:45:43;101654.59;;;14.09;64.07
54270;BME280;40181;51.560;13.000;2022-07-18T03:58:26;101662.16;;;13.89;61.08
54270;BME280;40181;51.560;13.000;2022-07-18T04:01:39;101649.88;;;13.89;61.73
54270;BME280;40181;51.560;13.000;2022-07-18T04:07:17;101646.06;;;13.75;62.36
54270;BME280;40181;51.560;13.000;2022-07-18T04:09:45;101649.41;;;13.64;62.35
54270;BME280;40181;51.560;13.000;2022-07-18T04:12:13;101658.13;;;13.59;62.70
54270;BME280;40181;51.560;13.000;2022-07-18T04:14:41;101649.28;;;13.58;62.46
54270;BME280;40181;51.560;13.000;2022-07-18T04:17:09;101647.66;;;13.63;62.71
54270;BME280;40181;51.560;13.000;2022-07-18T04:19:37;101652.88;;;13.62;62.34
54270;BME280;40181;51.560;13.000;2022-07-18T04:22:05;101645.09;;;13.68;62.17
54270;BME280;40181;51.560;13.000;2022-07-18T04:24:36;101644.25;;;13.71;62.45
54270;BME280;40181;51.560;13.000;2022-07-18T04:27:04;101647.00;;;13.77;62.14
54270;BME280;40181;51.560;13.000;2022-07-18T04:29:32;101648.84;;;13.81;62.17
54270;BME280;40181;51.560;13.000;2022-07-18T04:32:03;101641.66;;;13.74;62.32
54270;BME280;40181;51.560;13.000;2022-07-18T04:34:32;101647.91;;;13.77;62.71
54270;BME280;40181;51.560;13.000;2022-07-18T04:37:00;101637.56;;;13.91;62.55
54270;BME280;40181;51.560;13.000;2022-07-18T04:39:29;101633.16;;;13.90;62.60
54270;BME280;40181;51.560;13.000;2022-07-18T04:41:59;101641.94;;;13.91;63.13
54270;BME280;40181;51.560;13.000;2022-07-18T04:44:27;101623.53;;;13.94;63.43
54270;BME280;40181;51.560;13.000;2022-07-18T04:46:56;101628.69;;;13.88;64.22
54270;BME280;40181;51.560;13.000;2022-07-18T04:49:24;101624.41;;;13.93;64.98
54270;BME280;40181;51.560;13.000;2022-07-18T04:51:52;101634.16;;;13.99;64.87
54270;BME280;40181;51.560;13.000;2022-07-18T04:54:20;101626.44;;;14.09;64.27
54270;BME280;40181;51.560;13.000;2022-07-18T04:56:48;101621.97;;;14.08;63.76
54270;BME280;40181;51.560;13.000;2022-07-18T04:59:19;101623.84;;;14.14;61.92
54270;BME280;40181;51.560;13.000;2022-07-18T05:01:47;101627.41;;;14.16;60.77
54270;BME280;40181;51.560;13.000;2022-07-18T05:04:15;101634.44;;;14.14;60.22
54270;BME280;40181;51.560;13.000;2022-07-18T05:06:44;101640.78;;;14.27;59.43
54270;BME280;40181;51.560;13.000;2022-07-18T05:09:12;101619.78;;;14.38;58.67
54270;BME280;40181;51.560;13.000;2022-07-18T05:11:40;101630.47;;;14.44;58.28
54270;BME280;40181;51.560;13.000;2022-07-18T05:14:08;101634.03;;;14.49;57.81
54270;BME280;40181;51.560;13.000;2022-07-18T05:16:39;101625.09;;;14.39;57.55
54270;BME280;40181;51.560;13.000;2022-07-18T05:19:07;101635.84;;;14.50;57.65
54270;BME280;40181;51.560;13.000;2022-07-18T05:21:35;101624.41;;;14.53;57.45
54270;BME280;40181;51.560;13.000;2022-07-18T05:24:03;101625.44;;;14.63;57.38
54270;BME280;40181;51.560;13.000;2022-07-18T05:26:32;101639.81;;;14.80;56.96
54270;BME280;40181;51.560;13.000;2022-07-18T05:29:01;101631.91;;;14.82;56.33
54270;BME280;40181;51.560;13.000;2022-07-18T05:31:29;101627.66;;;14.95;56.50
54270;BME280;40181;51.560;13.000;2022-07-18T05:34:00;101625.06;;;15.01;56.16
54270;BME280;40181;51.560;13.000;2022-07-18T05:36:28;101623.25;;;14.99;55.22
54270;BME280;40181;51.560;13.000;2022-07-18T05:38:56;101618.03;;;15.02;55.12
54270;BME280;40181;51.560;13.000;2022-07-18T05:41:24;101628.66;;;15.06;55.00
54270;BME280;40181;51.560;13.000;2022-07-18T05:43:53;101627.88;;;15.15;55.17
54270;BME280;40181;51.560;13.000;2022-07-18T05:46:21;101627.13;;;15.27;54.83
54270;BME280;40181;51.560;13.000;2022-07-18T05:48:49;101628.06;;;15.34;54.86
54270;BME280;40181;51.560;13.000;2022-07-18T05:51:20;101630.03;;;15.49;54.57
54270;BME280;40181;51.560;13.000;2022-07-18T05:53:49;101624.84;;;15.61;54.89
54270;BME280;40181;51.560;13.000;2022-07-18T05:56:17;101629.31;;;15.69;54.67
54270;BME280;40181;51.560;13.000;2022-07-18T05:58:46;101617.06;;;15.82;54.64
54270;BME280;40181;51.560;13.000;2022-07-18T06:01:14;101626.94;;;15.94;54.54
54270;BME280;40181;51.560;13.000;2022-07-18T06:03:45;101618.13;;;16.01;53.98
54270;BME280;40181;51.560;13.000;2022-07-18T06:06:13;101622.56;;;16.02;54.56
54270;BME280;40181;51.560;13.000;2022-07-18T06:08:44;101616.47;;;16.12;54.33
54270;BME280;40181;51.560;13.000;2022-07-18T06:11:13;101624.50;;;16.22;54.16
54270;BME280;40181;51.560;13.000;2022-07-18T06:13:41;101619.22;;;16.29;53.79
54270;BME280;40181;51.560;13.000;2022-07-18T06:16:10;101612.19;;;16.36;53.12
54270;BME280;40181;51.560;13.000;2022-07-18T06:18:38;101625.56;;;16.53;52.44
54270;BME280;40181;51.560;13.000;2022-07-18T06:21:07;101628.25;;;16.61;52.72
54270;BME280;40181;51.560;13.000;2022-07-18T06:23:35;101616.81;;;16.71;52.94
54270;BME280;40181;51.560;13.000;2022-07-18T06:26:06;101619.50;;;16.79;52.73
54270;BME280;40181;51.560;13.000;2022-07-18T06:28:34;101615.09;;;16.87;52.59
54270;BME280;40181;51.560;13.000;2022-07-18T06:31:02;101622.22;;;16.93;52.33
54270;BME280;40181;51.560;13.000;2022-07-18T06:33:31;101627.63;;;17.07;52.30
54270;BME280;40181;51.560;13.000;2022-07-18T06:35:59;101619.69;;;17.17;51.56
54270;BME280;40181;51.560;13.000;2022-07-18T06:38:27;101620.59;;;17.30;51.84
54270;BME280;40181;51.560;13.000;2022-07-18T06:40:55;101619.72;;;17.41;50.94
54270;BME280;40181;51.560;13.000;2022-07-18T06:43:26;101617.09;;;17.55;50.30
54270;BME280;40181;51.560;13.000;2022-07-18T06:45:54;101616.22;;;17.67;50.79
54270;BME280;40181;51.560;13.000;2022-07-18T06:48:23;101618.91;;;17.75;50.97
54270;BME280;40181;51.560;13.000;2022-07-18T06:50:54;101621.53;;;17.81;50.44
54270;BME280;40181;51.560;13.000;2022-07-18T06:53:22;101610.03;;;17.92;50.81
54270;BME280;40181;51.560;13.000;2022-07-18T06:55:50;101605.59;;;18.05;49.91
54270;BME280;40181;51.560;13.000;2022-07-18T06:58:18;101621.56;;;18.19;49.04
54270;BME280;40181;51.560;13.000;2022-07-18T07:00:49;101618.88;;;18.31;49.02
54270;BME280;40181;51.560;13.000;2022-07-18T07:03:17;101613.53;;;18.41;49.14
54270;BME280;40181;51.560;13.000;2022-07-18T07:05:46;101617.09;;;18.50;48.80
54270;BME280;40181;51.560;13.000;2022-07-18T07:08:14;101616.13;;;18.64;48.21
54270;BME280;40181;51.560;13.000;2022-07-18T07:10:42;101611.66;;;18.83;47.04
54270;BME280;40181;51.560;13.000;2022-07-18T07:13:10;101619.56;;;18.96;47.05
54270;BME280;40181;51.560;13.000;2022-07-18T07:15:38;101613.34;;;19.07;46.79
54270;BME280;40181;51.560;13.000;2022-07-18T07:18:10;101618.53;;;19.29;45.79
54270;BME280;40181;51.560;13.000;2022-07-18T07:20:38;101619.34;;;19.44;45.18
54270;BME280;40181;51.560;13.000;2022-07-18T07:23:06;101608.59;;;19.52;45.65
54270;BME280;40181;51.560;13.000;2022-07-18T07:25:37;101619.19;;;19.64;45.71
54270;BME280;40181;51.560;13.000;2022-07-18T07:28:06;101615.50;;;19.81;44.05
54270;BME280;40181;51.560;13.000;2022-07-18T07:30:34;101597.66;;;19.90;43.34
54270;BME280;40181;51.560;13.000;2022-07-18T07:33:03;101601.13;;;20.02;44.53
54270;BME280;40181;51.560;13.000;2022-07-18T07:35:34;101600.16;;;20.11;43.43
54270;BME280;40181;51.560;13.000;2022-07-18T07:38:01;101592.00;;;20.26;43.53
54270;BME280;40181;51.560;13.000;2022-07-18T07:40:30;101604.25;;;20.44;42.45
54270;BME280;40181;51.560;13.000;2022-07-18T07:43:06;101603.22;;;20.58;43.29
54270;BME280;40181;51.560;13.000;2022-07-18T07:45:34;101591.44;;;20.74;41.30
54270;BME280;40181;51.560;13.000;2022-07-18T07:48:04;101594.78;;;20.95;41.67
54270;BME280;40181;51.560;13.000;2022-07-18T07:50:35;101603.44;;;21.13;40.59
54270;BME280;40181;51.560;13.000;2022-07-18T07:53:03;101586.34;;;21.25;39.93
54270;BME280;40181;51.560;13.000;2022-07-18T07:55:31;101580.81;;;21.39;41.21
54270;BME280;40181;51.560;13.000;2022-07-18T07:57:59;101589.44;;;21.55;40.83
54270;BME280;40181;51.560;13.000;2022-07-18T08:00:30;101580.00;;;21.89;39.35
54270;BME280;40181;51.560;13.000;2022-07-18T08:02:59;101573.53;;;22.02;37.77
54270;BME280;40181;51.560;13.000;2022-07-18T08:05:30;101581.44;;;22.08;37.93
54270;BME280;40181;51.560;13.000;2022-07-18T08:08:02;101581.97;;;22.28;36.88
54270;BME280;40181;51.560;13.000;2022-07-18T08:10:31;101580.78;;;22.43;36.43
54270;BME280;40181;51.560;13.000;2022-07-18T08:13:00;101569.06;;;22.51;36.17
54270;BME280;40181;51.560;13.000;2022-07-18T08:15:28;101573.13;;;22.70;35.26
54270;BME280;40181;51.560;13.000;2022-07-18T08:17:56;101568.09;;;22.95;37.09
54270;BME280;40181;51.560;13.000;2022-07-18T08:20:25;101565.16;;;23.07;35.50
54270;BME280;40181;51.560;13.000;2022-07-18T08:22:58;101563.34;;;23.08;35.66
54270;BME280;40181;51.560;13.000;2022-07-18T08:25:31;101563.22;;;23.14;35.14
54270;BME280;40181;51.560;13.000;2022-07-18T08:28:00;101563.91;;;23.23;34.38
54270;BME280;40181;51.560;13.000;2022-07-18T08:30:29;101560.94;;;23.37;34.13
54270;BME280;40181;51.560;13.000;2022-07-18T08:32:58;101565.47;;;23.71;34.51
54270;BME280;40181;51.560;13.000;2022-07-18T08:35:27;101563.94;;;23.95;35.02
54270;BME280;40181;51.560;13.000;2022-07-18T08:37:57;101568.09;;;24.09;32.93
54270;BME280;40181;51.560;13.000;2022-07-18T08:40:25;101566.78;;;23.89;33.39
54270;BME280;40181;51.560;13.000;2022-07-18T08:42:56;101561.69;;;24.13;32.49
54270;BME280;40181;51.560;13.000;2022-07-18T08:45:25;101555.19;;;24.22;32.47
54270;BME280;40181;51.560;13.000;2022-07-18T08:47:53;101565.19;;;24.48;31.84
54270;BME280;40181;51.560;13.000;2022-07-18T08:50:22;101556.63;;;24.65;32.09
54270;BME280;40181;51.560;13.000;2022-07-18T08:52:51;101556.47;;;24.70;31.93
54270;BME280;40181;51.560;13.000;2022-07-18T08:55:20;101559.50;;;24.91;31.03
54270;BME280;40181;51.560;13.000;2022-07-18T08:57:48;101558.63;;;25.19;31.55
54270;BME280;40181;51.560;13.000;2022-07-18T09:00:20;101560.75;;;25.07;30.55
54270;BME280;40181;51.560;13.000;2022-07-18T09:02:56;101559.28;;;25.25;30.40
54270;BME280;40181;51.560;13.000;2022-07-18T09:05:25;101561.34;;;25.17;29.40
54270;BME280;40181;51.560;13.000;2022-07-18T09:08:07;101558.91;;;25.65;29.76
54270;BME280;40181;51.560;13.000;2022-07-18T09:10:51;101555.56;;;25.30;29.00
54270;BME280;40181;51.560;13.000;2022-07-18T09:13:22;101561.84;;;25.84;29.34
54270;BME280;40181;51.560;13.000;2022-07-18T09:16:01;101555.91;;;25.74;28.66
54270;BME280;40181;51.560;13.000;2022-07-18T09:18:31;101544.84;;;26.09;30.12
54270;BME280;40181;51.560;13.000;2022-07-18T09:21:01;101544.09;;;26.04;27.76
54270;BME280;40181;51.560;13.000;2022-07-18T09:23:31;101548.69;;;26.27;27.40
54270;BME280;40181;51.560;13.000;2022-07-18T09:26:00;101543.00;;;26.09;27.37
54270;BME280;40181;51.560;13.000;2022-07-18T09:28:29;101541.84;;;26.17;27.56
54270;BME280;40181;51.560;13.000;2022-07-18T09:31:16;101547.28;;;26.15;26.44
54270;BME280;40181;51.560;13.000;2022-07-18T09:33:51;101540.97;;;26.42;27.40
54270;BME280;40181;51.560;13.000;2022-07-18T09:36:19;101547.81;;;26.98;27.62
54270;BME280;40181;51.560;13.000;2022-07-18T09:38:48;101537.75;;;26.56;26.79
54270;BME280;40181;51.560;13.000;2022-07-18T09:41:22;101546.88;;;26.75;27.05
54270;BME280;40181;51.560;13.000;2022-07-18T09:43:50;101542.03;;;26.61;25.92
54270;BME280;40181;51.560;13.000;2022-07-18T09:46:21;101546.13;;;26.96;25.28
54270;BME280;40181;51.560;13.000;2022-07-18T09:49:08;101547.50;;;26.82;24.92
54270;BME280;40181;51.560;13.000;2022-07-18T09:51:36;101542.50;;;27.19;25.91
54270;BME280;40181;51.560;13.000;2022-07-18T09:54:05;101536.13;;;27.42;27.47
54270;BME280;40181;51.560;13.000;2022-07-18T09:56:33;101527.69;;;27.93;27.48
54270;BME280;40181;51.560;13.000;2022-07-18T09:59:06;101527.66;;;28.35;26.40
54270;BME280;40181;51.560;13.000;2022-07-18T10:01:37;101527.91;;;27.88;24.64
54270;BME280;40181;51.560;13.000;2022-07-18T10:04:05;101530.94;;;28.01;24.31
54270;BME280;40181;51.560;13.000;2022-07-18T10:06:34;101535.00;;;28.31;25.78
54270;BME280;40181;51.560;13.000;2022-07-18T10:09:03;101534.38;;;28.64;24.85
54270;BME280;40181;51.560;13.000;2022-07-18T10:11:32;101530.50;;;28.32;25.23
54270;BME280;40181;51.560;13.000;2022-07-18T10:14:00;101524.53;;;28.82;25.00
54270;BME280;40181;51.560;13.000;2022-07-18T10:16:28;101532.88;;;28.78;25.01
54270;BME280;40181;51.560;13.000;2022-07-18T10:18:59;101525.56;;;28.41;23.56
54270;BME280;40181;51.560;13.000;2022-07-18T10:21:27;101521.94;;;28.22;24.31
54270;BME280;40181;51.560;13.000;2022-07-18T10:23:59;101521.53;;;28.50;25.23
54270;BME280;40181;51.560;13.000;2022-07-18T10:26:29;101516.81;;;28.55;24.85
54270;BME280;40181;51.560;13.000;2022-07-18T10:29:15;101521.41;;;28.92;24.02
54270;BME280;40181;51.560;13.000;2022-07-18T10:31:59;101527.81;;;28.70;24.58
54270;BME280;40181;51.560;13.000;2022-07-18T10:34:32;101524.97;;;28.73;24.75
54270;BME280;40181;51.560;13.000;2022-07-18T10:37:08;101509.94;;;28.87;24.50
54270;BME280;40181;51.560;13.000;2022-07-18T10:39:38;101521.91;;;28.81;24.67
54270;BME280;40181;51.560;13.000;2022-07-18T10:42:19;101519.50;;;28.94;25.89
54270;BME280;40181;51.560;13.000;2022-07-18T10:44:50;101520.50;;;28.72;24.26
54270;BME280;40181;51.560;13.000;2022-07-18T10:47:19;101518.78;;;29.27;24.40
54270;BME280;40181;51.560;13.000;2022-07-18T10:50:04;101511.59;;;29.26;26.47
54270;BME280;40181;51.560;13.000;2022-07-18T10:52:55;101518.63;;;29.30;24.58
54270;BME280;40181;51.560;13.000;2022-07-18T10:55:29;101510.78;;;29.78;25.85
54270;BME280;40181;51.560;13.000;2022-07-18T10:58:18;101514.06;;;30.01;23.91
54270;BME280;40181;51.560;13.000;2022-07-18T11:00:49;101510.97;;;29.38;23.49
54270;BME280;40181;51.560;13.000;2022-07-18T11:03:25;101507.88;;;28.92;23.29
54270;BME280;40181;51.560;13.000;2022-07-18T11:05:57;101506.41;;;29.58;25.09
54270;BME280;40181;51.560;13.000;2022-07-18T11:08:25;101505.41;;;29.94;25.53
54270;BME280;40181;51.560;13.000;2022-07-18T11:11:12;101507.69;;;30.02;24.65
54270;BME280;40181;51.560;13.000;2022-07-18T11:13:44;101497.31;;;29.77;23.96
54270;BME280;40181;51.560;13.000;2022-07-18T11:16:17;101488.44;;;29.91;24.57
54270;BME280;40181;51.560;13.000;2022-07-18T11:19:17;101482.75;;;30.13;23.76
54270;BME280;40181;51.560;13.000;2022-07-18T11:22:00;101480.50;;;30.21;25.20
54270;BME280;40181;51.560;13.000;2022-07-18T11:24:28;101482.88;;;29.94;23.61
54270;BME280;40181;51.560;13.000;2022-07-18T11:26:56;101484.63;;;29.95;23.75
54270;BME280;40181;51.560;13.000;2022-07-18T11:29:25;101486.00;;;30.20;23.63
54270;BME280;40181;51.560;13.000;2022-07-18T11:31:55;101488.09;;;30.15;23.80
54270;BME280;40181;51.560;13.000;2022-07-18T11:34:24;101476.81;;;29.89;23.47
54270;BME280;40181;51.560;13.000;2022-07-18T11:36:52;101477.78;;;30.05;23.66
54270;BME280;40181;51.560;13.000;2022-07-18T11:39:32;101466.25;;;30.18;23.34
54270;BME280;40181;51.560;13.000;2022-07-18T11:42:01;101468.91;;;29.50;23.20
54270;BME280;40181;51.560;13.000;2022-07-18T11:44:29;101472.81;;;30.30;23.74
54270;BME280;40181;51.560;13.000;2022-07-18T11:47:02;101469.13;;;29.81;22.78
54270;BME280;40181;51.560;13.000;2022-07-18T11:49:30;101467.09;;;30.68;23.91
54270;BME280;40181;51.560;13.000;2022-07-18T11:51:59;101466.09;;;30.53;22.39
54270;BME280;40181;51.560;13.000;2022-07-18T11:54:27;101462.00;;;30.78;23.41
54270;BME280;40181;51.560;13.000;2022-07-18T11:56:58;101455.94;;;31.05;24.59
54270;BME280;40181;51.560;13.000;2022-07-18T11:59:35;101454.41;;;31.15;24.38
54270;BME280;40181;51.560;13.000;2022-07-18T12:02:04;101446.34;;;31.14;22.80
54270;BME280;40181;51.560;13.000;2022-07-18T12:04:32;101449.94;;;30.84;22.32
54270;BME280;40181;51.560;13.000;2022-07-18T12:07:17;101447.41;;;30.81;22.93
54270;BME280;40181;51.560;13.000;2022-07-18T12:09:46;101455.97;;;30.73;22.26
54270;BME280;40181;51.560;13.000;2022-07-18T12:12:18;101447.22;;;30.84;23.41
54270;BME280;40181;51.560;13.000;2022-07-18T12:14:58;101448.59;;;31.38;22.56
54270;BME280;40181;51.560;13.000;2022-07-18T12:17:27;101439.34;;;31.85;22.75
54270;BME280;40181;51.560;13.000;2022-07-18T12:20:09;101436.38;;;31.14;22.27
54270;BME280;40181;51.560;13.000;2022-07-18T12:23:08;101446.44;;;31.28;21.57
54270;BME280;40181;51.560;13.000;2022-07-18T12:25:55;101439.09;;;31.45;23.70
54270;BME280;40181;51.560;13.000;2022-07-18T12:28:29;101436.19;;;31.48;21.62
54270;BME280;40181;51.560;13.000;2022-07-18T12:30:57;101427.31;;;31.60;21.81
54270;BME280;40181;51.560;13.000;2022-07-18T12:33:26;101431.53;;;31.36;21.93
54270;BME280;40181;51.560;13.000;2022-07-18T12:35:55;101432.78;;;31.44;22.95
54270;BME280;40181;51.560;13.000;2022-07-18T12:38:24;101424.88;;;31.70;22.69
54270;BME280;40181;51.560;13.000;2022-07-18T12:40:54;101428.25;;;31.14;22.08
54270;BME280;40181;51.560;13.000;2022-07-18T12:43:28;101424.06;;;31.09;23.43
54270;BME280;40181;51.560;13.000;2022-07-18T12:45:57;101418.78;;;30.75;24.95
54270;BME280;40181;51.560;13.000;2022-07-18T12:48:27;101412.81;;;31.45;23.11
54270;BME280;40181;51.560;13.000;2022-07-18T12:50:56;101413.22;;;31.39;23.01
54270;BME280;40181;51.560;13.000;2022-07-18T12:53:26;101410.00;;;31.47;22.31
54270;BME280;40181;51.560;13.000;2022-07-18T12:55:54;101410.38;;;31.10;22.61
54270;BME280;40181;51.560;13.000;2022-07-18T12:58:23;101413.44;;;31.65;22.83
54270;BME280;40181;51.560;13.000;2022-07-18T13:00:54;101414.47;;;31.48;23.69
54270;BME280;40181;51.560;13.000;2022-07-18T13:03:23;101409.28;;;31.88;24.60
54270;BME280;40181;51.560;13.000;2022-07-18T13:05:51;101408.34;;;31.44;22.57
54270;BME280;40181;51.560;13.000;2022-07-18T13:08:19;101407.09;;;31.50;23.34
54270;BME280;40181;51.560;13.000;2022-07-18T13:10:48;101394.16;;;31.84;22.71
54270;BME280;40181;51.560;13.000;2022-07-18T13:13:16;101393.38;;;31.97;23.40
54270;BME280;40181;51.560;13.000;2022-07-18T13:15:45;101392.72;;;32.21;25.85
54270;BME280;40181;51.560;13.000;2022-07-18T13:18:15;101394.09;;;32.13;21.91
54270;BME280;40181;51.560;13.000;2022-07-18T13:20:44;101384.72;;;32.19;20.68
54270;BME280;40181;51.560;13.000;2022-07-18T13:23:12;101382.16;;;32.16;21.71
54270;BME280;40181;51.560;13.000;2022-07-18T13:25:40;101379.50;;;32.43;22.52
54270;BME280;40181;51.560;13.000;2022-07-18T13:28:09;101380.34;;;32.17;20.79
54270;BME280;40181;51.560;13.000;2022-07-18T13:30:37;101381.41;;;31.56;21.65
54270;BME280;40181;51.560;13.000;2022-07-18T13:33:06;101381.09;;;31.01;21.78
54270;BME280;40181;51.560;13.000;2022-07-18T13:35:37;101377.53;;;31.60;22.01
54270;BME280;40181;51.560;13.000;2022-07-18T13:38:05;101376.50;;;31.92;21.58
54270;BME280;40181;51.560;13.000;2022-07-18T13:40:33;101375.22;;;31.83;21.93
54270;BME280;40181;51.560;13.000;2022-07-18T13:43:01;101366.38;;;31.94;23.06
54270;BME280;40181;51.560;13.000;2022-07-18T13:45:29;101376.88;;;31.85;22.21
54270;BME280;40181;51.560;13.000;2022-07-18T13:47:58;101373.94;;;31.74;21.49
54270;BME280;40181;51.560;13.000;2022-07-18T13:50:26;101354.28;;;31.85;21.86
54270;BME280;40181;51.560;13.000;2022-07-18T13:52:57;101367.94;;;31.98;21.94
54270;BME280;40181;51.560;13.000;2022-07-18T13:55:25;101361.91;;;31.78;21.43
54270;BME280;40181;51.560;13.000;2022-07-18T13:57:53;101357.25;;;32.09;21.60
54270;BME280;40181;51.560;13.000;2022-07-18T14:00:21;101357.09;;;32.40;22.86
54270;BME280;40181;51.560;13.000;2022-07-18T14:02:50;101358.44;;;32.33;21.99
54270;BME280;40181;51.560;13.000;2022-07-18T14:05:18;101353.03;;;32.18;21.53
54270;BME280;40181;51.560;13.000;2022-07-18T14:07:47;101348.88;;;32.12;21.42
54270;BME280;40181;51.560;13.000;2022-07-18T14:10:17;101346.16;;;32.12;21.41
54270;BME280;40181;51.560;13.000;2022-07-18T14:12:45;101347.59;;;31.62;21.84
54270;BME280;40181;51.560;13.000;2022-07-18T14:15:14;101340.16;;;32.35;21.53
54270;BME280;40181;51.560;13.000;2022-07-18T14:17:43;101338.31;;;32.08;21.25
54270;BME280;40181;51.560;13.000;2022-07-18T14:20:12;101338.66;;;32.31;23.11
54270;BME280;40181;51.560;13.000;2022-07-18T14:22:41;101335.94;;;32.58;21.66
54270;BME280;40181;51.560;13.000;2022-07-18T14:25:13;101337.25;;;32.65;21.33
54270;BME280;40181;51.560;13.000;2022-07-18T14:27:45;101343.00;;;32.61;23.05
54270;BME280;40181;51.560;13.000;2022-07-18T14:30:15;101333.41;;;32.82;20.74
54270;BME280;40181;51.560;13.000;2022-07-18T14:32:44;101331.31;;;32.86;20.46
54270;BME280;40181;51.560;13.000;2022-07-18T14:35:13;101333.56;;;32.66;21.29
54270;BME280;40181;51.560;13.000;2022-07-18T14:37:41;101331.19;;;32.20;21.57
54270;BME280;40181;51.560;13.000;2022-07-18T14:40:10;101331.94;;;31.94;21.81
54270;BME280;40181;51.560;13.000;2022-07-18T14:42:39;101319.81;;;31.85;21.52
54270;BME280;40181;51.560;13.000;2022-07-18T14:45:10;101324.56;;;31.96;20.88
54270;BME280;40181;51.560;13.000;2022-07-18T14:47:38;101325.72;;;32.34;20.53
54270;BME280;40181;51.560;13.000;2022-07-18T14:50:08;101318.19;;;32.52;21.79
54270;BME280;40181;51.560;13.000;2022-07-18T14:52:37;101315.03;;;32.04;20.84
54270;BME280;40181;51.560;13.000;2022-07-18T14:55:07;101312.13;;;32.34;20.81
54270;BME280;40181;51.560;13.000;2022-07-18T14:57:36;101314.72;;;32.50;20.70
54270;BME280;40181;51.560;13.000;2022-07-18T15:00:06;101318.50;;;32.48;20.18
54270;BME280;40181;51.560;13.000;2022-07-18T15:02:38;101312.44;;;32.57;20.65
54270;BME280;40181;51.560;13.000;2022-07-18T15:05:08;101314.25;;;32.43;20.60
54270;BME280;40181;51.560;13.000;2022-07-18T15:07:36;101324.25;;;32.43;20.56
54270;BME280;40181;51.560;13.000;2022-07-18T15:10:06;101314.84;;;32.34;21.22
54270;BME280;40181;51.560;13.000;2022-07-18T15:12:34;101313.56;;;32.80;21.35
54270;BME280;40181;51.560;13.000;2022-07-18T15:15:04;101306.22;;;32.95;20.42